Lama, New Mexico
Current Conditions -  °F | °C
As of 10:35 PM on Tuesday 25 Nov 2014 (Local Time) from KSKX Reporting Station
Clear Clear  
Wind Chill: 23°   Ceiling: Unl
Heat Index: 23°   Visibility: 10mi
Dew Point:   Wind: 3mph
Humidity: 54%   Direction: 130°SE
Pressure: 30.27"   Gusts: NA
Location:  36.7571°N, 105.477°W
Report Text: KSKX 260535Z AUTO 13003KT 10SM CLR M05/M13 A3027 RMK AO1
Loading
Personal Weather Stations






























Interactive Weather Map New forecast layout! Learn more

10-Day Weather Forecast

Advertisements
Track Severe Weather on mobile